createdAt,value
2023-08-29T00:03:07.730Z,5.32
2023-08-29T00:08:10.417Z,5.53
2023-08-29T00:13:13.286Z,6.18
2023-08-29T00:18:15.508Z,5.85
2023-08-29T00:23:18.253Z,5.18
2023-08-29T00:28:20.995Z,5.50
2023-08-29T00:33:23.812Z,6.28
2023-08-29T00:38:26.502Z,5.65
2023-08-29T00:43:29.540Z,5.55
2023-08-29T00:48:33.089Z,5.53
2023-08-29T00:53:38.625Z,4.57
2023-08-29T00:58:41.422Z,6.47
2023-08-29T01:03:44.516Z,4.72
2023-08-29T01:08:47.285Z,4.70
2023-08-29T01:14:24.442Z,4.82
2023-08-29T01:19:27.904Z,4.90
2023-08-29T01:25:08.113Z,3.95
2023-08-29T01:30:12.044Z,3.07
2023-08-29T01:35:16.906Z,2.97
2023-08-29T01:40:19.579Z,2.53
2023-08-29T01:45:22.335Z,3.25
2023-08-29T01:50:26.098Z,4.07
2023-08-29T01:55:30.380Z,3.50
2023-08-29T02:00:33.390Z,3.00
2023-08-29T02:05:36.151Z,2.78
2023-08-29T02:10:38.831Z,3.65
2023-08-29T02:15:41.403Z,2.80
2023-08-29T02:20:44.575Z,3.65
2023-08-29T02:25:46.776Z,2.97
2023-08-29T02:30:49.396Z,3.28
2023-08-29T02:35:52.185Z,3.60
2023-08-29T02:40:55.032Z,3.35
2023-08-29T02:45:58.138Z,4.93
2023-08-29T02:51:00.880Z,3.53
2023-08-29T02:56:03.657Z,3.78
2023-08-29T03:01:11.175Z,3.88
2023-08-29T03:06:13.892Z,3.70
2023-08-29T03:11:16.729Z,3.63
2023-08-29T03:16:20.637Z,3.78
2023-08-29T03:21:23.323Z,3.25
2023-08-29T03:26:26.203Z,5.30
2023-08-29T03:31:29.078Z,3.83
2023-08-29T03:36:31.819Z,5.68
2023-08-29T03:41:34.586Z,3.38
2023-08-29T03:46:37.587Z,4.88
2023-08-29T03:51:40.345Z,4.30
2023-08-29T03:56:44.872Z,3.70
2023-08-29T04:01:47.806Z,3.47
2023-08-29T04:06:50.671Z,4.18
2023-08-29T04:11:53.333Z,3.47
2023-08-29T04:16:57.207Z,3.80
2023-08-29T04:22:00.340Z,3.80
2023-08-29T04:27:02.760Z,4.28
2023-08-29T04:32:06.050Z,3.58
2023-08-29T04:37:08.932Z,4.78
2023-08-29T04:42:11.979Z,4.35
2023-08-29T04:47:14.696Z,3.88
2023-08-29T04:52:17.442Z,3.55
2023-08-29T04:57:20.240Z,4.50
2023-08-29T05:02:23.664Z,3.78
2023-08-29T05:07:27.393Z,4.07
2023-08-29T05:12:30.158Z,4.70
2023-08-29T05:17:32.396Z,3.75
2023-08-29T05:22:35.306Z,3.47
2023-08-29T05:27:38.428Z,3.10
2023-08-29T05:32:41.132Z,2.80
2023-08-29T05:37:43.363Z,2.70
2023-08-29T05:42:46.019Z,2.95
2023-08-29T05:47:48.617Z,2.80
2023-08-29T05:52:51.452Z,2.50
2023-08-29T05:57:54.152Z,2.70
2023-08-29T06:02:56.927Z,2.80
2023-08-29T06:08:16.863Z,2.53
2023-08-29T06:13:22.245Z,2.70
2023-08-29T06:18:25.540Z,2.55
2023-08-29T06:23:28.385Z,2.90
2023-08-29T06:28:32.119Z,3.53
2023-08-29T06:33:35.851Z,3.22
2023-08-29T06:38:40.513Z,2.80
2023-08-29T06:43:42.908Z,3.40
2023-08-29T06:48:45.581Z,2.63
2023-08-29T06:53:47.802Z,3.25
2023-08-29T06:58:50.830Z,3.00
2023-08-29T07:03:54.569Z,3.40
2023-08-29T07:08:57.348Z,3.40
2023-08-29T07:14:00.098Z,3.70
2023-08-29T07:19:03.156Z,3.92
2023-08-29T07:24:06.148Z,3.60
2023-08-29T07:29:08.378Z,3.55
2023-08-29T07:34:13.088Z,3.92
2023-08-29T07:39:19.277Z,4.20
2023-08-29T07:44:21.651Z,4.18
2023-08-29T07:49:24.304Z,4.10
2023-08-29T07:54:26.602Z,4.20
2023-08-29T07:59:29.448Z,4.57
2023-08-29T08:04:32.321Z,5.00
2023-08-29T08:09:34.974Z,4.35
2023-08-29T08:14:37.661Z,5.53
2023-08-29T08:19:40.455Z,4.82
2023-08-29T08:24:42.844Z,4.68
2023-08-29T08:29:45.664Z,5.07
2023-08-29T08:34:48.441Z,5.35
2023-08-29T08:39:50.812Z,5.05
2023-08-29T08:44:53.920Z,5.47
2023-08-29T08:49:56.653Z,6.03
2023-08-29T08:54:59.412Z,5.78
2023-08-29T09:00:01.614Z,5.55
2023-08-29T09:05:04.903Z,5.15
2023-08-29T09:10:12.043Z,5.10
2023-08-29T09:15:17.974Z,4.95
2023-08-29T09:20:21.568Z,5.68
2023-08-29T09:25:27.932Z,5.47
2023-08-29T09:30:30.925Z,5.75
2023-08-29T09:35:35.558Z,5.75
2023-08-29T09:40:51.623Z,6.53
2023-08-29T09:45:55.270Z,6.35
2023-08-29T09:51:00.320Z,6.57
2023-08-29T09:56:11.319Z,7.25
2023-08-29T10:01:15.000Z,7.00
2023-08-29T10:06:19.884Z,7.18
2023-08-29T10:11:23.433Z,7.70
2023-08-29T10:16:27.474Z,7.50
2023-08-29T10:21:31.279Z,7.28
2023-08-29T10:26:35.099Z,6.03
2023-08-29T10:31:38.120Z,6.07
2023-08-29T10:36:41.059Z,5.47
2023-08-29T10:41:48.154Z,6.00
2023-08-29T10:46:54.384Z,5.38
2023-08-29T10:52:20.014Z,5.90
2023-08-29T10:57:30.844Z,5.53
2023-08-29T11:02:33.313Z,4.93
2023-08-29T11:07:36.437Z,4.78
2023-08-29T11:13:09.476Z,4.70
2023-08-29T11:18:30.183Z,5.00
2023-08-29T11:23:36.405Z,4.85
2023-08-29T11:28:44.275Z,5.03
2023-08-29T11:33:48.236Z,5.53
2023-08-29T11:38:52.715Z,5.07
2023-08-29T11:44:26.419Z,4.95
2023-08-29T11:49:20.610Z,5.40
2023-08-29T11:54:47.130Z,5.70
2023-08-29T11:59:53.620Z,5.28
2023-08-29T12:04:58.220Z,5.05
2023-08-29T12:10:11.904Z,5.85
2023-08-29T12:15:24.227Z,5.68
2023-08-29T12:20:35.168Z,5.43
2023-08-29T12:25:37.631Z,5.35
2023-08-29T12:30:40.458Z,4.97
2023-08-29T12:35:42.676Z,4.65
2023-08-29T12:40:45.598Z,4.95
2023-08-29T12:45:58.361Z,4.65
2023-08-29T12:51:03.705Z,5.22
2023-08-29T12:56:08.171Z,5.30
2023-08-29T13:01:12.300Z,5.05
2023-08-29T13:06:33.454Z,5.10
2023-08-29T13:11:36.157Z,4.72
2023-08-29T13:16:39.047Z,5.07
2023-08-29T13:21:41.736Z,4.78
2023-08-29T13:26:43.894Z,4.50
2023-08-29T13:31:47.187Z,4.50
2023-08-29T13:36:50.108Z,5.25
2023-08-29T13:41:52.862Z,4.65
2023-08-29T13:46:55.504Z,4.65
2023-08-29T13:52:00.871Z,4.95
2023-08-29T13:57:06.578Z,5.57
2023-08-29T14:02:11.131Z,4.97
2023-08-29T14:07:13.910Z,4.90
2023-08-29T14:12:16.654Z,4.90
2023-08-29T14:17:19.827Z,4.90
2023-08-29T14:22:22.010Z,5.15
2023-08-29T14:27:24.715Z,5.38
2023-08-29T14:32:27.535Z,4.95
2023-08-29T14:37:29.898Z,5.20
2023-08-29T14:42:32.719Z,5.32
2023-08-29T14:47:36.309Z,4.65
2023-08-29T14:52:39.682Z,4.88
2023-08-29T14:57:42.311Z,4.70
2023-08-29T15:02:46.036Z,5.10
2023-08-29T15:07:48.965Z,5.13
2023-08-29T15:12:51.717Z,5.13
2023-08-29T15:17:54.523Z,5.50
2023-08-29T15:22:57.280Z,6.10
2023-08-29T15:27:59.917Z,5.95
2023-08-29T15:33:02.846Z,6.63
2023-08-29T15:38:05.788Z,6.75
2023-08-29T15:43:08.399Z,5.30
2023-08-29T15:48:11.164Z,6.45
2023-08-29T15:53:15.153Z,6.60
2023-08-29T15:58:18.985Z,6.18
2023-08-29T16:03:22.619Z,6.15
2023-08-29T16:08:26.823Z,6.55
2023-08-29T16:13:29.676Z,6.10
2023-08-29T16:18:32.680Z,7.32
2023-08-29T16:23:35.466Z,7.05
2023-08-29T16:28:38.236Z,7.18
2023-08-29T16:33:41.418Z,6.80
2023-08-29T16:38:44.408Z,7.57
2023-08-29T16:43:47.130Z,9.20
2023-08-29T16:48:49.810Z,8.00
2023-08-29T16:53:52.510Z,11.30
2023-08-29T16:58:55.276Z,9.02
2023-08-29T17:03:57.987Z,9.55
2023-08-29T17:09:00.149Z,9.45
2023-08-29T17:14:03.781Z,8.45
2023-08-29T17:19:07.150Z,8.60
2023-08-29T17:24:09.609Z,6.68
2023-08-29T17:29:12.257Z,6.13
2023-08-29T17:34:15.386Z,4.70
2023-08-29T17:39:17.681Z,5.68
2023-08-29T17:44:20.531Z,5.18
2023-08-29T17:49:23.435Z,5.82
2023-08-29T17:54:26.454Z,5.07
2023-08-29T17:59:29.142Z,5.03
2023-08-29T18:04:31.728Z,5.20
2023-08-29T18:09:34.009Z,5.00
2023-08-29T18:14:36.206Z,5.15
2023-08-29T18:19:38.767Z,5.15
2023-08-29T18:24:41.372Z,7.22
2023-08-29T18:29:43.572Z,5.47
2023-08-29T18:34:45.834Z,6.00
2023-08-29T18:39:48.046Z,5.43
2023-08-29T18:44:50.624Z,5.18
2023-08-29T18:49:53.611Z,5.53
2023-08-29T18:54:58.306Z,5.95
2023-08-29T19:00:00.814Z,5.80
2023-08-29T19:05:05.118Z,6.47
2023-08-29T19:10:08.753Z,6.95
2023-08-29T19:15:11.547Z,5.97
2023-08-29T19:20:14.130Z,7.38
2023-08-29T19:25:18.224Z,6.60
2023-08-29T19:30:20.974Z,6.90
2023-08-29T19:35:23.266Z,6.28
2023-08-29T19:40:26.183Z,6.47
2023-08-29T19:45:29.664Z,7.90
2023-08-29T19:50:32.360Z,7.25
2023-08-29T19:55:37.415Z,6.53
2023-08-29T20:00:40.854Z,6.68
2023-08-29T20:05:45.812Z,6.60
2023-08-29T20:10:48.463Z,7.32
2023-08-29T20:15:52.195Z,7.72
2023-08-29T20:20:54.882Z,7.28
2023-08-29T20:25:57.857Z,6.78
2023-08-29T20:31:00.433Z,7.03
2023-08-29T20:36:03.002Z,7.43
2023-08-29T20:41:05.686Z,5.65
2023-08-29T20:46:08.718Z,5.60
2023-08-29T20:51:11.075Z,6.25
2023-08-29T20:56:13.838Z,5.60
2023-08-29T21:01:16.951Z,5.55
2023-08-29T21:06:21.485Z,5.70
2023-08-29T21:11:24.509Z,5.40
2023-08-29T21:16:27.211Z,6.28
2023-08-29T21:21:29.545Z,5.88
2023-08-29T21:26:32.908Z,5.68
2023-08-29T21:31:35.675Z,6.15
2023-08-29T21:36:39.689Z,5.95
2023-08-29T21:41:42.389Z,6.20
2023-08-29T21:46:45.269Z,6.75
2023-08-29T21:51:48.685Z,6.65
2023-08-29T21:56:51.327Z,6.38
2023-08-29T22:01:54.826Z,5.97
2023-08-29T22:06:57.444Z,6.60
2023-08-29T22:12:00.131Z,6.97
2023-08-29T22:17:03.285Z,7.05
2023-08-29T22:22:05.984Z,6.28
2023-08-29T22:27:08.577Z,6.28
2023-08-29T22:32:11.724Z,6.55
2023-08-29T22:37:14.873Z,7.28
2023-08-29T22:42:18.009Z,6.95
2023-08-29T22:47:20.985Z,6.70
2023-08-29T22:52:24.740Z,7.03
2023-08-29T22:57:27.506Z,7.20
2023-08-29T23:02:29.679Z,7.25
2023-08-29T23:07:32.378Z,7.55
2023-08-29T23:12:35.199Z,6.97
2023-08-29T23:17:38.097Z,6.60
2023-08-29T23:22:40.330Z,7.18
2023-08-29T23:27:42.993Z,7.63
2023-08-29T23:32:49.617Z,7.13
2023-08-29T23:37:52.446Z,6.75
2023-08-29T23:42:54.591Z,6.80
2023-08-29T23:47:57.194Z,7.43
2023-08-29T23:53:00.528Z,6.22
2023-08-29T23:58:03.434Z,7.40
